Buford, Georgia
Current Conditions -  °F | °C
As of 7:45 PM on Sunday 21 Dec 2014 (Local Time) from KLZU Reporting Station
Overcast Overcast  
Wind Chill: 45°   Ceiling: 2500
Heat Index: 48°   Visibility: 10mi
Dew Point: 37°   Wind: 8mph
Humidity: 66%   Direction: 70°ENE
Pressure: 30.1"   Gusts: NA
Location:  34.12°N, 84.01°W
Report Text: KLZU 220045Z 07007KT 10SM OVC025 09/03 A3010 RMK ATIS S RWY 07 JW
Loading
Personal Weather Stations






























Interactive Weather Map New forecast layout! Learn more

10-Day Weather Forecast

Advertisements
Track Severe Weather on mobile